createdAt,value
2018-08-14T00:00:32.130Z,7.07
2018-08-14T00:03:01.716Z,7.43
2018-08-14T00:05:30.433Z,7.30
2018-08-14T00:07:59.150Z,6.80
2018-08-14T00:10:28.143Z,7.47
2018-08-14T00:12:57.001Z,8.03
2018-08-14T00:15:25.693Z,7.80
2018-08-14T00:17:54.419Z,7.90
2018-08-14T00:20:23.729Z,8.40
2018-08-14T00:22:52.672Z,8.50
2018-08-14T00:25:21.470Z,8.63
2018-08-14T00:27:52.296Z,8.93
2018-08-14T00:30:26.593Z,9.70
2018-08-14T00:32:56.041Z,8.90
2018-08-14T00:35:24.819Z,8.80
2018-08-14T00:37:53.668Z,9.67
2018-08-14T00:40:23.279Z,9.93
2018-08-14T00:42:57.883Z,9.70
2018-08-14T00:45:26.632Z,10.40
2018-08-14T00:47:55.351Z,10.90
2018-08-14T00:50:24.053Z,10.90
2018-08-14T00:52:52.791Z,10.67
2018-08-14T00:55:22.393Z,10.93
2018-08-14T00:57:51.708Z,12.40
2018-08-14T01:00:27.150Z,11.63
2018-08-14T01:02:55.790Z,11.43
2018-08-14T01:05:24.340Z,13.20
2018-08-14T01:07:52.966Z,11.73
2018-08-14T01:10:21.516Z,12.50
2018-08-14T01:12:52.511Z,13.67
2018-08-14T01:15:22.320Z,12.47
2018-08-14T01:17:52.216Z,13.10
2018-08-14T01:20:22.964Z,12.90
2018-08-14T01:22:51.654Z,14.17
2018-08-14T01:25:20.177Z,14.23
2018-08-14T01:27:50.142Z,14.33
2018-08-14T01:30:22.369Z,14.93
2018-08-14T01:32:50.944Z,14.70
2018-08-14T01:35:19.636Z,15.20
2018-08-14T01:37:48.530Z,15.57
2018-08-14T01:40:17.124Z,16.00
2018-08-14T01:42:45.733Z,15.50
2018-08-14T01:45:15.254Z,15.73
2018-08-14T01:47:44.267Z,15.70
2018-08-14T01:50:24.699Z,16.03
2018-08-14T01:52:53.318Z,14.97
2018-08-14T01:55:22.903Z,16.40
2018-08-14T01:57:52.500Z,16.20
2018-08-14T02:00:22.395Z,17.33
2018-08-14T02:02:51.434Z,16.60
2018-08-14T02:05:20.049Z,16.30
2018-08-14T02:07:48.613Z,16.70
2018-08-14T02:10:19.494Z,16.80
2018-08-14T02:12:48.165Z,16.20
2018-08-14T02:15:17.888Z,16.20
2018-08-14T02:17:46.575Z,16.60
2018-08-14T02:20:17.764Z,15.93
2018-08-14T02:22:46.648Z,16.67
2018-08-14T02:25:15.213Z,15.43
2018-08-14T02:27:44.495Z,15.27
2018-08-14T02:30:13.516Z,16.20
2018-08-14T02:32:42.063Z,14.87
2018-08-14T02:35:11.771Z,17.50
2018-08-14T02:37:40.344Z,15.20
2018-08-14T02:40:20.450Z,15.53
2018-08-14T02:42:49.630Z,16.30
2018-08-14T02:45:18.359Z,16.10
2018-08-14T02:47:47.156Z,16.70
2018-08-14T02:50:16.233Z,15.00
2018-08-14T02:52:45.135Z,16.03
2018-08-14T02:55:23.962Z,16.20
2018-08-14T02:57:52.659Z,16.17
2018-08-14T03:00:23.738Z,16.17
2018-08-14T03:02:52.448Z,16.00
2018-08-14T03:05:21.152Z,15.33
2018-08-14T03:07:49.864Z,16.20
2018-08-14T03:10:18.546Z,16.10
2018-08-14T03:12:47.256Z,15.10
2018-08-14T03:15:18.336Z,16.77
2018-08-14T03:17:51.189Z,16.83
2018-08-14T03:20:19.927Z,17.03
2018-08-14T03:22:48.624Z,16.90
2018-08-14T03:25:17.323Z,17.30
2018-08-14T03:27:46.073Z,16.63
2018-08-14T03:30:14.818Z,16.73
2018-08-14T03:32:43.500Z,16.70
2018-08-14T03:35:13.697Z,17.53
2018-08-14T03:37:42.388Z,18.07
2018-08-14T03:40:15.107Z,17.10
2018-08-14T03:42:44.384Z,17.27
2018-08-14T03:45:13.057Z,17.50
2018-08-14T03:47:41.880Z,18.37
2018-08-14T03:50:11.325Z,17.07
2018-08-14T03:52:40.954Z,19.47
2018-08-14T03:55:11.558Z,18.13
2018-08-14T03:57:40.789Z,19.63
2018-08-14T04:00:11.678Z,19.33
2018-08-14T04:02:40.407Z,19.27
2018-08-14T04:05:09.202Z,18.70
2018-08-14T04:07:37.873Z,18.93
2018-08-14T04:10:07.163Z,18.63
2018-08-14T04:12:35.840Z,17.70
2018-08-14T04:15:05.106Z,18.80
2018-08-14T04:17:33.786Z,18.50
2018-08-14T04:20:02.487Z,18.50
2018-08-14T04:22:31.173Z,18.37
2018-08-14T04:24:59.868Z,18.73
2018-08-14T04:27:28.547Z,18.37
2018-08-14T04:29:57.236Z,18.77
2018-08-14T04:32:25.899Z,19.80
2018-08-14T04:34:54.737Z,19.20
2018-08-14T04:37:23.396Z,18.83
2018-08-14T04:39:52.067Z,18.90
2018-08-14T04:42:20.713Z,18.50
2018-08-14T04:44:49.407Z,20.40
2018-08-14T04:47:18.103Z,19.23
2018-08-14T04:49:46.768Z,18.57
2018-08-14T04:52:15.429Z,18.70
2018-08-14T04:54:44.103Z,18.90
2018-08-14T04:57:12.803Z,16.93
2018-08-14T04:59:41.480Z,18.50
2018-08-14T05:02:10.192Z,18.13
2018-08-14T05:04:38.924Z,18.07
2018-08-14T05:07:07.687Z,19.43
2018-08-14T05:09:36.372Z,18.17
2018-08-14T05:12:05.116Z,18.07
2018-08-14T05:14:33.812Z,18.37
2018-08-14T05:17:02.518Z,18.60
2018-08-14T05:19:31.158Z,18.17
2018-08-14T05:21:59.831Z,17.80
2018-08-14T05:24:28.507Z,17.30
2018-08-14T05:26:57.209Z,17.30
2018-08-14T05:29:25.888Z,18.17
2018-08-14T05:31:54.637Z,17.17
2018-08-14T05:34:23.305Z,17.83
2018-08-14T05:36:51.976Z,17.30
2018-08-14T05:39:20.657Z,17.43
2018-08-14T05:41:49.375Z,16.27
2018-08-14T05:44:20.832Z,16.03
2018-08-14T05:46:49.824Z,15.90
2018-08-14T05:49:18.636Z,16.13
2018-08-14T05:51:48.024Z,15.20
2018-08-14T05:54:16.746Z,15.07
2018-08-14T05:56:46.468Z,14.83
2018-08-14T05:59:15.206Z,15.50
2018-08-14T06:01:44.202Z,14.60
2018-08-14T06:04:13.707Z,14.33
2018-08-14T06:06:42.861Z,14.20
2018-08-14T06:09:12.800Z,15.00
2018-08-14T06:11:42.676Z,15.33
2018-08-14T06:14:11.476Z,14.67
2018-08-14T06:16:40.705Z,14.23
2018-08-14T06:19:09.777Z,14.10
2018-08-14T06:21:38.507Z,14.57
2018-08-14T06:24:07.228Z,14.70
2018-08-14T06:26:35.932Z,14.60
2018-08-14T06:29:04.605Z,14.30
2018-08-14T06:31:33.322Z,14.73
2018-08-14T06:34:02.043Z,14.70
2018-08-14T06:36:30.766Z,14.27
2018-08-14T06:38:59.451Z,13.67
2018-08-14T06:41:28.165Z,13.40
2018-08-14T06:43:56.835Z,12.60
2018-08-14T06:46:25.553Z,13.50
2018-08-14T06:48:54.433Z,12.70
2018-08-14T06:51:23.137Z,11.97
2018-08-14T06:53:51.820Z,12.80
2018-08-14T07:10:44.097Z,10.50
2018-08-14T07:13:12.819Z,11.37
2018-08-14T07:15:41.484Z,9.93
2018-08-14T07:18:10.228Z,10.27
2018-08-14T07:20:40.278Z,9.70
2018-08-14T07:23:09.229Z,9.73
2018-08-14T07:25:37.883Z,9.90
2018-08-14T07:28:06.766Z,9.80
2018-08-14T07:30:36.698Z,9.70
2018-08-14T07:33:05.495Z,9.03
2018-08-14T07:35:34.183Z,9.07
2018-08-14T07:38:02.922Z,8.37
2018-08-14T07:40:31.628Z,9.30
2018-08-14T07:43:00.327Z,7.50
2018-08-14T07:45:33.299Z,7.60
2018-08-14T07:48:03.587Z,7.20
2018-08-14T08:02:15.601Z,8.00
2018-08-14T08:04:44.659Z,7.63
2018-08-14T08:07:13.329Z,7.00
2018-08-14T08:09:43.432Z,7.13
2018-08-14T08:12:12.263Z,7.37
2018-08-14T08:14:40.961Z,7.80
2018-08-14T08:17:09.790Z,7.73
2018-08-14T08:19:42.970Z,8.13
2018-08-14T08:22:13.291Z,8.33
2018-08-14T08:24:43.630Z,8.30
2018-08-14T08:27:13.925Z,8.20
2018-08-14T08:29:42.708Z,7.60
2018-08-14T08:32:11.405Z,7.17
2018-08-14T08:34:41.534Z,7.70
2018-08-14T08:37:10.244Z,6.70
2018-08-14T08:39:38.943Z,7.90
2018-08-14T08:42:08.624Z,8.40
2018-08-14T08:44:37.433Z,8.30
2018-08-14T08:47:06.115Z,8.30
2018-08-14T08:49:35.291Z,8.70
2018-08-14T08:52:04.535Z,8.77
2018-08-14T08:54:34.923Z,8.43
2018-08-14T08:57:03.627Z,8.00
2018-08-14T08:59:33.863Z,9.57
2018-08-14T09:02:04.278Z,8.57
2018-08-14T09:04:34.397Z,9.20
2018-08-14T09:07:03.186Z,9.20
2018-08-14T09:09:31.928Z,8.10
2018-08-14T09:12:00.634Z,8.70
2018-08-14T09:14:30.829Z,9.03
2018-08-14T09:16:59.678Z,8.10
2018-08-14T09:19:28.409Z,7.43
2018-08-14T09:21:57.138Z,7.37
2018-08-14T09:24:25.871Z,7.17
2018-08-14T09:26:54.558Z,6.80
2018-08-14T09:29:23.239Z,6.20
2018-08-14T09:31:51.891Z,6.63
2018-08-14T09:34:20.571Z,5.60
2018-08-14T09:36:49.280Z,6.60
2018-08-14T09:39:18.032Z,6.00
2018-08-14T09:41:46.704Z,7.20
2018-08-14T09:44:15.432Z,6.80
2018-08-14T09:46:44.119Z,6.57
2018-08-14T09:49:12.897Z,8.37
2018-08-14T09:51:41.630Z,8.00
2018-08-14T09:54:10.379Z,7.80
2018-08-14T09:56:39.030Z,7.70
2018-08-14T09:59:07.703Z,7.30
2018-08-14T10:01:41.711Z,7.83
2018-08-14T10:04:15.475Z,7.87
2018-08-14T10:06:49.205Z,8.40
2018-08-14T10:09:17.905Z,7.93
2018-08-14T10:11:46.565Z,7.40
2018-08-14T10:14:15.305Z,7.27
2018-08-14T10:16:44.014Z,6.80
2018-08-14T10:19:12.777Z,6.63
2018-08-14T10:21:41.595Z,6.80
2018-08-14T10:24:10.276Z,6.90
2018-08-14T10:26:38.984Z,6.97
2018-08-14T10:29:07.737Z,6.90
2018-08-14T10:31:36.403Z,6.80
2018-08-14T10:34:05.138Z,5.93
2018-08-14T10:36:33.858Z,6.40
2018-08-14T10:39:02.619Z,5.90
2018-08-14T10:41:31.281Z,6.10
2018-08-14T10:44:00.019Z,6.13
2018-08-14T10:46:28.718Z,5.30
2018-08-14T10:48:57.386Z,6.27
2018-08-14T10:51:26.069Z,5.23
2018-08-14T10:53:54.722Z,5.50
2018-08-14T10:56:23.443Z,5.10
2018-08-14T10:58:52.129Z,5.17
2018-08-14T11:01:20.792Z,4.60
2018-08-14T11:03:49.495Z,4.50
2018-08-14T11:06:18.191Z,4.60
2018-08-14T11:08:46.836Z,5.20
2018-08-14T11:11:18.480Z,4.07
2018-08-14T11:13:47.939Z,4.70
2018-08-14T11:16:16.766Z,4.40
2018-08-14T11:18:45.419Z,4.37
2018-08-14T11:21:14.122Z,4.90
2018-08-14T11:23:42.772Z,4.90
2018-08-14T11:26:11.467Z,5.60
2018-08-14T11:28:40.170Z,4.87
2018-08-14T11:31:08.890Z,5.23
2018-08-14T11:33:37.607Z,5.73
2018-08-14T11:36:07.328Z,5.10
2018-08-14T11:38:36.495Z,5.87
2018-08-14T11:41:06.049Z,4.77
2018-08-14T11:43:34.727Z,4.90
2018-08-14T11:46:03.450Z,5.00
2018-08-14T11:48:32.311Z,4.60
2018-08-14T11:51:01.095Z,4.90
2018-08-14T11:53:29.707Z,4.93
2018-08-14T11:55:58.419Z,5.17
2018-08-14T11:58:27.071Z,5.40
2018-08-14T12:00:55.807Z,4.70
2018-08-14T12:03:24.477Z,4.80
2018-08-14T12:05:53.174Z,4.43
2018-08-14T12:08:22.639Z,5.37
2018-08-14T12:10:51.301Z,5.20
2018-08-14T12:13:19.975Z,5.20
2018-08-14T12:15:48.654Z,4.50
2018-08-14T12:18:17.339Z,4.47
2018-08-14T12:20:46.026Z,3.80
2018-08-14T12:23:14.683Z,4.00
2018-08-14T12:25:43.336Z,4.03
2018-08-14T12:28:12.043Z,4.27
2018-08-14T12:30:40.698Z,3.80
2018-08-14T12:33:09.355Z,4.03
2018-08-14T12:35:38.040Z,3.30
2018-08-14T12:38:06.691Z,3.43
2018-08-14T12:40:35.379Z,2.77
2018-08-14T12:43:06.409Z,2.87
2018-08-14T12:45:35.265Z,2.43
2018-08-14T12:48:04.000Z,2.60
2018-08-14T12:50:32.722Z,2.40
2018-08-14T12:53:01.445Z,2.70
2018-08-14T12:55:30.129Z,2.37
2018-08-14T12:57:58.852Z,2.10
2018-08-14T13:00:29.034Z,2.47
2018-08-14T13:02:57.744Z,2.13
2018-08-14T13:05:27.274Z,2.20
2018-08-14T13:07:56.263Z,2.30
2018-08-14T13:10:25.053Z,2.00
2018-08-14T13:12:53.816Z,1.97
2018-08-14T13:15:22.559Z,2.40
2018-08-14T13:17:58.549Z,1.90
2018-08-14T13:20:27.299Z,1.80
2018-08-14T13:22:56.062Z,1.90
2018-08-14T13:25:24.713Z,2.00
2018-08-14T13:27:53.449Z,2.17
2018-08-14T13:30:22.207Z,1.90
2018-08-14T13:32:50.975Z,2.80
2018-08-14T13:35:19.662Z,2.60
2018-08-14T13:37:48.333Z,3.40
2018-08-14T13:40:17.073Z,3.00
2018-08-14T13:42:45.756Z,3.60
2018-08-14T13:45:14.461Z,3.10
2018-08-14T13:47:43.759Z,2.87
2018-08-14T13:50:13.157Z,3.03
2018-08-14T13:52:41.928Z,3.30
2018-08-14T13:55:15.827Z,2.80
2018-08-14T13:57:45.118Z,2.80
2018-08-14T14:00:16.685Z,2.87
2018-08-14T14:02:45.405Z,3.00
2018-08-14T14:05:14.514Z,3.17
2018-08-14T14:07:43.392Z,3.50
2018-08-14T14:10:13.523Z,2.97
2018-08-14T14:12:42.671Z,1.83
2018-08-14T14:15:16.695Z,1.40
2018-08-14T14:17:46.740Z,1.50
2018-08-14T14:20:16.107Z,1.40
2018-08-14T14:22:45.039Z,1.50
2018-08-14T14:25:13.754Z,1.27
2018-08-14T14:27:42.681Z,1.40
2018-08-14T14:30:13.704Z,1.50
2018-08-14T14:32:42.852Z,1.53
2018-08-14T14:35:12.327Z,1.30
2018-08-14T14:37:41.208Z,1.20
2018-08-14T14:40:14.776Z,1.20
2018-08-14T14:42:43.698Z,1.60
2018-08-14T14:45:13.809Z,1.97
2018-08-14T14:47:43.766Z,2.00
2018-08-14T14:50:12.659Z,2.00
2018-08-14T14:52:42.403Z,2.40
2018-08-14T14:55:13.496Z,2.30
2018-08-14T14:57:42.700Z,2.73
2018-08-14T15:00:17.783Z,2.83
2018-08-14T15:02:47.868Z,3.23
2018-08-14T15:05:16.513Z,3.43
2018-08-14T15:07:45.980Z,2.90
2018-08-14T15:10:14.630Z,2.87
2018-08-14T15:12:43.822Z,3.70
2018-08-14T15:15:12.474Z,3.17
2018-08-14T15:17:42.045Z,2.90
2018-08-14T15:20:16.920Z,2.90
2018-08-14T15:22:46.412Z,3.00
2018-08-14T15:25:16.422Z,3.60
2018-08-14T15:28:56.338Z,3.83
2018-08-14T15:31:25.615Z,3.50
2018-08-14T15:33:55.280Z,2.80
2018-08-14T15:36:25.417Z,2.40
2018-08-14T15:38:54.744Z,1.70
2018-08-14T15:41:23.398Z,1.87
2018-08-14T15:43:52.066Z,1.37
2018-08-14T15:46:20.751Z,1.40
2018-08-14T15:48:49.442Z,1.03
2018-08-14T15:51:18.280Z,1.33
2018-08-14T15:53:47.281Z,1.30
2018-08-14T15:56:15.924Z,1.53
2018-08-14T15:58:44.606Z,1.70
2018-08-14T16:01:13.297Z,1.60
2018-08-14T16:03:41.956Z,1.80
2018-08-14T16:06:10.654Z,1.57
2018-08-14T16:08:39.376Z,1.63
2018-08-14T16:11:08.043Z,1.80
2018-08-14T16:13:36.747Z,1.97
2018-08-14T16:16:05.816Z,1.90
2018-08-14T16:18:34.674Z,2.10
2018-08-14T16:21:03.416Z,1.93
2018-08-14T16:23:32.378Z,2.20
2018-08-14T16:26:01.060Z,2.13
2018-08-14T16:28:29.769Z,2.60
2018-08-14T16:30:58.470Z,2.53
2018-08-14T16:33:27.461Z,2.73
2018-08-14T16:35:56.192Z,2.17
2018-08-14T16:38:24.866Z,2.80
2018-08-14T16:40:53.624Z,2.67
2018-08-14T16:43:22.253Z,2.70
2018-08-14T16:45:50.943Z,2.77
2018-08-14T16:48:19.596Z,2.77
2018-08-14T16:50:48.301Z,2.60
2018-08-14T16:53:17.024Z,2.83
2018-08-14T16:55:45.746Z,3.30
2018-08-14T16:58:14.414Z,2.90
2018-08-14T17:00:43.094Z,2.80
2018-08-14T17:03:12.750Z,3.00
2018-08-14T17:05:41.883Z,2.80
2018-08-14T17:08:10.559Z,2.30
2018-08-14T17:10:39.271Z,2.40
2018-08-14T17:13:08.006Z,2.57
2018-08-14T17:15:36.662Z,3.17
2018-08-14T17:18:05.646Z,2.20
2018-08-14T17:20:33.135Z,2.70
2018-08-14T17:23:01.793Z,2.70
2018-08-14T17:25:30.440Z,2.33
2018-08-14T17:27:59.117Z,2.60
2018-08-14T17:30:28.696Z,2.30
2018-08-14T17:32:58.144Z,2.23
2018-08-14T17:35:26.810Z,2.60
2018-08-14T17:37:56.085Z,2.30
2018-08-14T17:40:25.995Z,2.23
2018-08-14T17:42:54.760Z,2.33
2018-08-14T17:45:26.618Z,2.20
2018-08-14T17:47:57.758Z,1.80
2018-08-14T17:50:26.907Z,1.97
2018-08-14T17:52:55.619Z,1.70
2018-08-14T17:55:25.894Z,2.03
2018-08-14T17:57:54.639Z,1.70
2018-08-14T18:00:28.696Z,1.27
2018-08-14T18:03:00.856Z,1.20
2018-08-14T18:05:29.600Z,1.30
2018-08-14T18:07:58.336Z,1.33
2018-08-14T18:10:26.996Z,1.10
2018-08-14T18:12:55.704Z,1.20
2018-08-14T18:15:24.433Z,1.20
2018-08-14T18:17:53.123Z,1.30
2018-08-14T18:20:23.931Z,1.23
2018-08-14T18:22:52.644Z,1.10
2018-08-14T18:25:22.468Z,1.10
2018-08-14T18:27:51.538Z,1.30
2018-08-14T18:30:21.283Z,1.50
2018-08-14T18:32:50.099Z,1.70
2018-08-14T18:35:19.210Z,1.53
2018-08-14T18:37:48.416Z,1.67
2018-08-14T18:40:19.035Z,1.73
2018-08-14T18:42:48.290Z,1.70
2018-08-14T18:45:18.383Z,1.63
2018-08-14T18:47:47.084Z,1.50
2018-08-14T18:50:16.731Z,1.70
2018-08-14T18:52:45.470Z,1.90
2018-08-14T18:55:15.647Z,1.90
2018-08-14T18:57:45.422Z,1.80
2018-08-14T19:00:22.423Z,1.70
2018-08-14T19:02:52.255Z,2.00
2018-08-14T19:05:21.449Z,1.83
2018-08-14T19:07:50.179Z,1.70
2018-08-14T19:10:20.173Z,2.20
2018-08-14T19:12:49.684Z,2.00
2018-08-14T19:15:25.432Z,2.17
2018-08-14T19:17:54.219Z,2.10
2018-08-14T19:20:22.883Z,1.60
2018-08-14T19:22:51.569Z,1.70
2018-08-14T19:25:20.244Z,2.03
2018-08-14T19:27:48.915Z,2.07
2018-08-14T19:30:17.647Z,2.37
2018-08-14T19:32:46.347Z,1.90
2018-08-14T19:35:16.135Z,2.20
2018-08-14T19:37:44.909Z,2.30
2018-08-14T19:40:17.189Z,2.10
2018-08-14T19:42:46.429Z,1.80
2018-08-14T19:45:17.534Z,2.00
2018-08-14T19:47:46.500Z,2.20
2018-08-14T19:50:16.598Z,2.03
2018-08-14T19:52:45.258Z,2.10
2018-08-14T19:55:15.979Z,1.93
2018-08-14T19:57:46.271Z,1.90
2018-08-14T20:00:16.399Z,1.83
2018-08-14T20:02:45.170Z,2.10
2018-08-14T20:05:15.191Z,1.70
2018-08-14T20:07:43.962Z,1.73
2018-08-14T20:10:13.547Z,1.90
2018-08-14T20:12:42.538Z,2.00
2018-08-14T20:15:12.694Z,1.90
2018-08-14T20:17:41.621Z,2.50
2018-08-14T20:20:13.179Z,2.30
2018-08-14T20:22:42.009Z,2.60
2018-08-14T20:25:13.135Z,2.30
2018-08-14T20:27:41.899Z,2.83
2018-08-14T20:30:15.751Z,2.90
2018-08-14T20:32:44.548Z,3.30
2018-08-14T20:35:14.671Z,3.07
2018-08-14T20:37:56.438Z,3.50
2018-08-14T20:40:25.174Z,3.80
2018-08-14T20:42:53.891Z,3.50
2018-08-14T20:45:30.437Z,3.33
2018-08-14T20:48:19.801Z,2.60
2018-08-14T20:50:48.508Z,2.83
2018-08-14T20:53:17.239Z,2.70
2018-08-14T20:55:45.932Z,2.43
2018-08-14T20:58:14.621Z,2.30
2018-08-14T21:00:43.360Z,1.90
2018-08-14T21:03:12.044Z,1.47
2018-08-14T21:05:40.721Z,1.73
2018-08-14T21:08:09.423Z,1.60
2018-08-14T21:10:38.086Z,1.50
2018-08-14T21:13:06.827Z,1.40
2018-08-14T21:15:40.660Z,1.50
2018-08-14T21:18:09.715Z,1.80
2018-08-14T21:20:38.386Z,1.70
2018-08-14T21:23:07.189Z,1.83
2018-08-14T21:25:35.862Z,1.87
2018-08-14T21:28:04.561Z,2.20
2018-08-14T21:30:33.248Z,2.20
2018-08-14T21:33:01.934Z,2.83
2018-08-14T21:35:30.632Z,2.17
2018-08-14T21:37:59.372Z,2.20
2018-08-14T21:40:28.066Z,2.00
2018-08-14T21:42:56.713Z,2.20
2018-08-14T21:45:25.392Z,2.03
2018-08-14T21:47:54.077Z,2.53
2018-08-14T21:50:22.768Z,2.27
2018-08-14T21:52:51.461Z,2.40
2018-08-14T21:55:20.168Z,2.10
2018-08-14T21:57:48.808Z,2.70
2018-08-14T22:00:24.881Z,2.43
2018-08-14T22:02:53.667Z,2.30
2018-08-14T22:05:22.392Z,2.43
2018-08-14T22:07:51.041Z,2.00
2018-08-14T22:10:20.879Z,2.40
2018-08-14T22:12:50.058Z,2.07
2018-08-14T22:15:19.000Z,2.20
2018-08-14T22:17:48.116Z,2.53
2018-08-14T22:20:17.334Z,2.30
2018-08-14T22:22:46.013Z,2.60
2018-08-14T22:25:14.848Z,2.30
2018-08-14T22:27:43.562Z,2.57
2018-08-14T22:30:13.996Z,2.57
2018-08-14T22:32:43.082Z,2.63
2018-08-14T22:35:11.753Z,3.00
2018-08-14T22:37:40.453Z,2.40
2018-08-14T22:40:09.175Z,2.20
2018-08-14T22:42:38.235Z,2.63
2018-08-14T22:45:08.381Z,2.37
2018-08-14T22:47:37.215Z,2.13
2018-08-14T22:50:06.590Z,5.90
2018-08-14T22:52:35.292Z,4.80
2018-08-14T22:55:04.108Z,2.37
2018-08-14T22:57:32.786Z,2.53
2018-08-14T23:00:01.525Z,2.70
2018-08-14T23:02:30.296Z,2.70
2018-08-14T23:04:59.139Z,2.97
2018-08-14T23:07:27.791Z,2.50
2018-08-14T23:09:56.525Z,2.87
2018-08-14T23:12:25.261Z,2.60
2018-08-14T23:14:53.940Z,2.90
2018-08-14T23:17:22.600Z,2.83
2018-08-14T23:19:51.271Z,3.03
2018-08-14T23:22:19.925Z,2.73
2018-08-14T23:24:48.640Z,2.93
2018-08-14T23:27:17.319Z,2.97
2018-08-14T23:29:45.988Z,3.37
2018-08-14T23:32:14.664Z,3.13
2018-08-14T23:34:43.370Z,3.53
2018-08-14T23:37:12.051Z,3.00
2018-08-14T23:39:40.687Z,3.30
2018-08-14T23:42:09.431Z,2.97
2018-08-14T23:44:38.109Z,3.20
2018-08-14T23:47:06.851Z,3.00
2018-08-14T23:49:35.489Z,2.90
2018-08-14T23:52:04.150Z,3.07
2018-08-14T23:54:32.823Z,2.47
2018-08-14T23:57:01.535Z,2.93
2018-08-14T23:59:30.228Z,2.60
